Time;durP1;ratioP1;P1;durP2;ratioP2;P2;SDS_P1;SDS_P2;PMS_P1;PMS_P2;Temp;Humidity;BMP_temperature;BMP_pressure;BME280_temperature;BME280_humidity;BME280_pressure;Samples;Min_cycle;Max_cycle;Signal;HPM_P1;HPM_P2
2022/10/23 00:00:50;;;;;;;;;5.50;4.00;;;;;11.75;81.08;99799.75;5096356;28;8938;-60
2022/10/23 00:03:17;;;;;;;;;6.25;6.25;;;;;11.77;81.50;99794.28;5096643;28;8833;-63
2022/10/23 00:05:45;;;;;;;;;6.50;6.50;;;;;11.79;80.93;99797.66;5096580;28;8910;-62
2022/10/23 00:08:12;;;;;;;;;3.50;3.50;;;;;11.79;81.29;99795.84;5096084;28;8810;-62
2022/10/23 00:10:40;;;;;;;;;6.75;6.50;;;;;11.79;80.98;99795.84;5096294;28;9516;-62
2022/10/23 00:13:08;;;;;;;;;5.50;5.50;;;;;11.76;80.92;99789.94;5096453;28;8919;-62
2022/10/23 00:15:36;;;;;;;;;7.50;7.00;;;;;11.72;80.85;99792.00;5095947;28;8951;-62
2022/10/23 00:18:04;;;;;;;;;6.00;6.00;;;;;11.70;81.24;99783.31;5096252;28;8830;-63
2022/10/23 00:20:32;;;;;;;;;6.25;6.00;;;;;11.69;81.55;99794.09;5096255;28;8818;-62
2022/10/23 00:22:59;;;;;;;;;6.00;6.00;;;;;11.67;81.48;99796.91;5097137;28;8895;-60
2022/10/23 00:25:27;;;;;;;;;6.50;4.50;;;;;11.64;81.23;99797.16;5095983;28;8900;-60
2022/10/23 00:27:54;;;;;;;;;6.00;6.00;;;;;11.61;81.33;99797.41;5095625;28;8850;-61
2022/10/23 00:30:22;;;;;;;;;6.00;6.00;;;;;11.58;81.34;99792.34;5096450;28;8846;-59
2022/10/23 00:32:50;;;;;;;;;6.00;6.00;;;;;11.55;81.18;99792.59;5096096;28;8846;-62
2022/10/23 00:35:18;;;;;;;;;4.00;4.00;;;;;11.53;81.44;99794.53;5096285;28;8842;-62
2022/10/23 00:37:46;;;;;;;;;5.50;4.50;;;;;11.51;81.82;99793.81;5095949;28;8934;-62
2022/10/23 00:40:13;;;;;;;;;6.25;4.00;;;;;11.48;81.49;99791.44;5096375;28;8914;-60
2022/10/23 00:42:41;;;;;;;;;3.75;3.50;;;;;11.45;81.66;99799.69;5095530;28;8895;-61
2022/10/23 00:45:09;;;;;;;;;5.00;5.00;;;;;11.43;81.57;99804.31;5096023;28;8853;-62
2022/10/23 00:47:37;;;;;;;;;7.00;6.25;;;;;11.42;81.70;99807.09;5095442;28;8911;-62
2022/10/23 00:50:05;;;;;;;;;6.75;6.25;;;;;11.39;81.40;99802.84;5095518;28;8918;-60
2022/10/23 00:52:32;;;;;;;;;6.25;6.00;;;;;11.40;81.47;99809.91;5095677;28;8818;-61
2022/10/23 00:55:00;;;;;;;;;6.50;6.50;;;;;11.37;81.57;99807.50;5095146;28;8830;-60
2022/10/23 00:57:28;;;;;;;;;5.00;5.00;;;;;11.37;81.72;99799.50;5095645;28;8850;-61
2022/10/23 01:00:00;;;;;;;;;10.00;9.00;;;;;11.37;82.03;99804.00;5095264;28;8811;-62
2022/10/23 01:02:28;;;;;;;;;7.00;7.00;;;;;11.37;81.97;99804.81;5095440;28;8818;-60
2022/10/23 01:04:55;;;;;;;;;6.75;6.00;;;;;11.35;81.79;99806.78;5095591;28;8834;-62
2022/10/23 01:07:23;;;;;;;;;7.00;6.25;;;;;11.35;81.88;99816.59;5095763;28;8978;-61
2022/10/23 01:09:51;;;;;;;;;8.00;8.00;;;;;11.33;81.78;99813.22;5095320;28;8826;-61
2022/10/23 01:12:19;;;;;;;;;8.50;8.50;;;;;11.29;81.44;99807.28;5095134;28;8826;-61
2022/10/23 01:14:46;;;;;;;;;9.00;8.00;;;;;11.28;81.64;99805.59;5095262;28;9569;-61
2022/10/23 01:17:14;;;;;;;;;7.75;7.50;;;;;11.26;81.77;99801.38;5095217;28;8903;-60
2022/10/23 01:19:42;;;;;;;;;11.00;9.25;;;;;11.23;81.32;99807.81;5094715;28;8850;-60
2022/10/23 01:22:10;;;;;;;;;10.00;8.50;;;;;11.21;82.34;99806.28;5095084;28;8887;-60
2022/10/23 01:24:37;;;;;;;;;7.00;6.00;;;;;11.20;82.13;99802.75;5095383;28;8834;-62
2022/10/23 01:27:05;;;;;;;;;4.50;4.50;;;;;11.19;82.09;99805.53;5095667;28;8838;-62
2022/10/23 01:29:33;;;;;;;;;6.50;6.50;;;;;11.17;81.93;99803.03;5095433;28;8830;-61
2022/10/23 01:32:00;;;;;;;;;6.00;6.00;;;;;11.16;82.29;99801.31;5095339;28;8898;-60
2022/10/23 01:34:28;;;;;;;;;8.50;6.75;;;;;11.18;82.17;99793.19;5095256;28;8826;-60
2022/10/23 01:36:56;;;;;;;;;5.00;3.75;;;;;11.24;81.67;99796.16;5095146;28;8838;-60
2022/10/23 01:39:24;;;;;;;;;7.00;7.00;;;;;11.28;81.62;99794.94;5094687;28;8895;-62
2022/10/23 01:41:51;;;;;;;;;7.00;5.00;;;;;11.28;81.86;99786.94;5094807;28;8830;-60
2022/10/23 01:44:20;;;;;;;;;4.00;4.00;;;;;11.28;81.66;99786.94;5095020;28;9848;-61
2022/10/23 01:46:48;;;;;;;;;8.00;7.50;;;;;11.28;81.49;99781.63;5094752;28;8826;-61
2022/10/23 01:49:16;;;;;;;;;3.75;3.25;;;;;11.29;81.43;99779.81;5094343;28;8825;-62
2022/10/23 01:51:43;;;;;;;;;3.25;3.25;;;;;11.29;82.09;99779.81;5094742;28;8822;-59
2022/10/23 01:54:11;;;;;;;;;4.00;4.00;;;;;11.29;81.97;99775.31;5095935;28;8919;-60
2022/10/23 01:56:39;;;;;;;;;5.00;4.50;;;;;11.30;81.53;99774.31;5098264;28;8822;-61
2022/10/23 01:59:06;;;;;;;;;3.75;3.50;;;;;11.29;81.46;99775.31;5098517;28;8915;-61
2022/10/23 02:01:34;;;;;;;;;3.75;3.75;;;;;11.30;81.90;99760.16;5098322;28;9605;-62
2022/10/23 02:04:02;;;;;;;;;11.75;8.50;;;;;11.30;82.07;99762.84;5098030;28;8822;-60
2022/10/23 02:06:29;;;;;;;;;10.75;8.00;;;;;11.31;81.49;99754.69;5098219;28;9527;-59
2022/10/23 02:08:57;;;;;;;;;7.50;7.00;;;;;11.35;81.40;99752.59;5098168;28;8825;-62
2022/10/23 02:11:25;;;;;;;;;8.00;7.00;;;;;11.36;81.55;99754.31;5098681;28;8960;-61
2022/10/23 02:13:54;;;;;;;;;8.50;8.00;;;;;11.35;81.79;99742.78;5098670;28;8826;-62
2022/10/23 02:16:21;;;;;;;;;5.50;3.75;;;;;11.35;81.65;99737.47;5098929;28;8829;-60
2022/10/23 02:18:49;;;;;;;;;10.00;9.50;;;;;11.35;81.62;99737.47;5098637;28;8853;-62
2022/10/23 02:21:16;;;;;;;;;7.00;6.25;;;;;11.36;81.73;99746.31;5078252;28;8886;-63
2022/10/23 02:23:44;;;;;;;;;7.75;7.75;;;;;11.33;81.54;99739.44;5078125;28;8812;-61
2022/10/23 02:26:12;;;;;;;;;6.50;6.25;;;;;11.30;81.73;99728.19;5077793;28;8816;-61
2022/10/23 02:28:39;;;;;;;;;8.50;8.50;;;;;11.26;82.10;99724.94;5078066;28;8945;-60
2022/10/23 02:31:07;;;;;;;;;7.00;6.00;;;;;11.23;81.45;99719.84;5078034;28;8820;-62
2022/10/23 02:33:34;;;;;;;;;6.00;6.00;;;;;11.23;82.10;99730.50;5078204;28;8828;-62
2022/10/23 02:36:02;;;;;;;;;9.00;5.00;;;;;11.23;82.04;99724.34;5077913;28;8820;-62
2022/10/23 02:38:30;;;;;;;;;8.00;7.75;;;;;11.21;81.88;99719.16;5078134;28;8851;-62
2022/10/23 02:40:57;;;;;;;;;1.00;1.00;;;;;11.22;81.56;99718.16;5078285;28;8921;-62
2022/10/23 02:43:25;;;;;;;;;6.25;6.00;;;;;11.23;82.02;99721.69;5078188;28;8832;-62
2022/10/23 02:45:53;;;;;;;;;6.00;6.00;;;;;11.25;81.60;99714.41;5077944;28;8823;-60
2022/10/23 02:48:21;;;;;;;;;3.00;3.00;;;;;11.28;81.67;99717.63;5078141;28;8828;-61
2022/10/23 02:50:49;;;;;;;;;8.00;6.75;;;;;11.30;81.51;99710.34;5097139;28;8838;-60
2022/10/23 02:53:16;;;;;;;;;4.00;4.00;;;;;11.32;81.92;99704.91;5097943;28;8830;-62
2022/10/23 02:55:44;;;;;;;;;2.50;2.50;;;;;11.34;81.71;99700.28;5097869;28;8907;-61
2022/10/23 02:58:12;;;;;;;;;3.50;3.50;;;;;11.36;81.54;99693.00;5098284;28;8862;-61
2022/10/23 03:00:39;;;;;;;;;3.00;3.00;;;;;11.37;82.05;99686.69;5098200;28;8826;-60
2022/10/23 03:03:07;;;;;;;;;3.00;3.00;;;;;11.37;81.44;99686.69;5097658;28;8915;-62
2022/10/23 03:05:35;;;;;;;;;3.00;3.00;;;;;11.39;81.20;99684.72;5097421;28;8834;-61
2022/10/23 03:08:02;;;;;;;;;1.50;1.00;;;;;11.39;81.39;99688.22;5097444;28;9702;-60
2022/10/23 03:10:30;;;;;;;;;2.00;1.00;;;;;11.42;81.66;99693.31;5097996;28;8822;-61
2022/10/23 03:12:58;;;;;;;;;3.00;2.00;;;;;11.43;81.49;99684.31;5098033;28;8833;-60
2022/10/23 03:15:26;;;;;;;;;3.00;3.00;;;;;11.43;81.36;99680.81;5097521;28;8833;-61
2022/10/23 03:17:53;;;;;;;;;3.00;3.00;;;;;11.43;81.55;99688.81;5097413;28;8830;-61
2022/10/23 03:20:21;;;;;;;;;3.25;3.00;;;;;11.41;81.31;99688.09;5097508;28;8900;-61
2022/10/23 03:22:48;;;;;;;;;3.00;3.00;;;;;11.40;81.15;99692.59;5097913;28;8899;-60
2022/10/23 03:25:16;;;;;;;;;3.50;3.50;;;;;11.37;81.38;99695.50;5097249;28;8850;-60
2022/10/23 03:27:44;;;;;;;;;3.50;3.50;;;;;11.35;81.41;99689.47;5097762;28;8843;-60
2022/10/23 03:30:11;;;;;;;;;3.50;3.50;;;;;11.31;81.75;99685.38;5096819;28;8841;-60
2022/10/23 03:32:39;;;;;;;;;3.00;3.00;;;;;11.28;81.42;99674.13;5096510;28;8852;-60
2022/10/23 03:35:10;;;;;;;;;5.50;4.00;;;;;11.25;81.74;99661.94;5096372;28;8841;-60
2022/10/23 03:37:37;;;;;;;;;3.75;3.75;;;;;11.24;81.93;99662.06;5096632;28;8822;-60
2022/10/23 03:40:05;;;;;;;;;4.50;3.25;;;;;11.22;81.64;99667.53;5097012;28;8864;-61
2022/10/23 03:42:33;;;;;;;;;3.75;3.00;;;;;11.21;82.06;99667.69;5096448;28;8834;-60
2022/10/23 03:45:00;;;;;;;;;4.00;4.00;;;;;11.19;81.76;99672.28;5096902;28;8918;-60
2022/10/23 03:47:29;;;;;;;;;1.00;1.00;;;;;11.18;81.16;99674.13;5096998;28;8830;-61
2022/10/23 03:49:56;;;;;;;;;2.50;2.50;;;;;11.20;82.08;99668.63;5096373;28;8806;-60
2022/10/23 03:52:24;;;;;;;;;1.00;1.00;;;;;11.21;81.67;99665.00;5097083;28;9511;-60
2022/10/23 03:54:52;;;;;;;;;2.50;2.50;;;;;11.23;81.79;99658.53;5096957;28;8830;-60
2022/10/23 03:57:19;;;;;;;;;3.75;3.75;;;;;11.25;82.13;99656.63;5096909;28;8850;-61
2022/10/23 03:59:47;;;;;;;;;4.00;4.00;;;;;11.28;81.84;99653.66;5097064;28;8841;-60
2022/10/23 04:02:15;;;;;;;;;3.50;3.50;;;;;11.30;81.67;99643.72;5096906;28;8918;-61
2022/10/23 04:04:42;;;;;;;;;3.00;3.00;;;;;11.32;81.46;99639.09;5095803;28;8814;-60
2022/10/23 04:07:10;;;;;;;;;3.00;3.00;;;;;11.34;82.18;99617.63;5096146;28;8916;-59
2022/10/23 04:09:37;;;;;;;;;3.00;3.00;;;;;11.33;81.65;99621.28;5095873;28;8830;-60
2022/10/23 04:12:05;;;;;;;;;3.50;3.25;;;;;11.31;81.14;99624.06;5096225;28;8826;-60
2022/10/23 04:14:33;;;;;;;;;3.50;1.50;;;;;11.29;81.95;99623.38;5096355;28;8834;-61
2022/10/23 04:17:01;;;;;;;;;3.00;3.00;;;;;11.30;81.72;99621.56;5095584;28;8814;-62
2022/10/23 04:19:29;;;;;;;;;5.00;4.00;;;;;11.32;81.33;99617.78;5095584;28;8834;-61
2022/10/23 04:21:57;;;;;;;;;4.50;4.50;;;;;11.36;81.90;99611.19;5096146;28;8845;-62
2022/10/23 04:24:24;;;;;;;;;10.00;6.50;;;;;11.38;81.30;99606.56;5096311;28;8894;-61
2022/10/23 04:26:52;;;;;;;;;6.00;6.00;;;;;11.39;81.45;99623.41;5096727;28;8834;-62
2022/10/23 04:29:21;;;;;;;;;5.50;4.00;;;;;11.41;81.52;99627.63;5096194;28;8899;-62
2022/10/23 04:31:50;;;;;;;;;5.00;5.00;;;;;11.42;81.81;99631.97;5096402;28;8846;-63
2022/10/23 04:34:17;;;;;;;;;4.50;4.50;;;;;11.44;81.64;99630.03;5096056;28;8891;-62
2022/10/23 04:36:45;;;;;;;;;9.00;8.50;;;;;11.46;81.27;99622.72;5096428;28;8887;-60
2022/10/23 04:39:13;;;;;;;;;6.75;6.00;;;;;11.47;81.10;99624.44;5095949;28;8923;-60
2022/10/23 04:41:41;;;;;;;;;5.25;5.00;;;;;11.50;81.56;99626.81;5096977;28;8834;-62
2022/10/23 04:44:08;;;;;;;;;5.00;3.75;;;;;11.49;81.19;99622.47;5096422;28;8923;-61
2022/10/23 04:46:36;;;;;;;;;6.25;5.50;;;;;11.50;81.36;99618.81;5096786;28;8912;-60
2022/10/23 04:49:04;;;;;;;;;4.50;4.50;;;;;11.51;81.68;99614.34;5095539;28;8810;-61
2022/10/23 04:51:32;;;;;;;;;4.00;4.00;;;;;11.50;81.70;99612.63;5096111;28;8894;-61
2022/10/23 04:53:59;;;;;;;;;6.00;6.00;;;;;11.51;81.73;99620.50;5096441;28;9817;-62
2022/10/23 04:56:27;;;;;;;;;3.75;3.75;;;;;11.50;81.42;99613.47;5096110;28;8898;-60
2022/10/23 04:58:54;;;;;;;;;5.00;5.00;;;;;11.51;81.39;99607.16;5095751;28;8829;-62
2022/10/23 05:01:22;;;;;;;;;4.50;4.00;;;;;11.52;81.02;99598.19;5095791;28;8822;-62
2022/10/23 05:03:52;;;;;;;;;6.00;4.50;;;;;11.52;80.92;99595.50;5095567;28;8826;-60
2022/10/23 05:06:20;;;;;;;;;6.00;6.00;;;;;11.52;81.34;99586.69;5096298;28;9488;-60
2022/10/23 05:08:48;;;;;;;;;4.00;4.00;;;;;11.51;81.38;99588.50;5095793;28;8900;-61
2022/10/23 05:11:15;;;;;;;;;5.00;5.00;;;;;11.52;81.17;99589.34;5096061;28;8826;-61
2022/10/23 05:13:43;;;;;;;;;6.00;5.00;;;;;11.53;81.08;99583.03;5095529;28;8834;-62
2022/10/23 05:16:11;;;;;;;;;6.75;4.50;;;;;11.53;81.62;99580.38;5095508;28;8825;-62
2022/10/23 05:18:38;;;;;;;;;4.50;4.50;;;;;11.54;81.82;99571.38;5095303;28;8942;-62
2022/10/23 05:21:06;;;;;;;;;6.25;6.25;;;;;11.53;81.36;99575.03;5095560;28;8826;-61
2022/10/23 05:23:34;;;;;;;;;6.25;6.25;;;;;11.53;81.83;99575.03;5095215;28;9518;-62
2022/10/23 05:26:02;;;;;;;;;5.50;5.50;;;;;11.50;81.58;99573.50;5095373;28;8918;-62
2022/10/23 05:28:30;;;;;;;;;6.25;6.25;;;;;11.50;81.31;99569.97;5095846;28;9530;-61
2022/10/23 05:30:58;;;;;;;;;5.75;5.00;;;;;11.51;81.75;99559.16;5099854;28;8826;-62
2022/10/23 05:33:26;;;;;;;;;3.00;3.00;;;;;11.53;81.58;99569.72;5099788;28;8818;-62
2022/10/23 05:35:53;;;;;;;;;6.00;4.50;;;;;11.56;81.78;99564.09;5099063;28;8853;-62
2022/10/23 05:38:21;;;;;;;;;3.00;3.00;;;;;11.60;81.84;99571.72;5099755;28;8903;-61
2022/10/23 05:40:49;;;;;;;;;6.75;6.50;;;;;11.66;81.32;99571.16;5099768;28;8899;-62
2022/10/23 05:43:17;;;;;;;;;4.00;4.00;;;;;11.70;80.92;99567.25;5099296;28;8830;-62
2022/10/23 05:45:45;;;;;;;;;6.00;5.00;;;;;11.71;80.89;99571.59;5099658;28;8810;-61
2022/10/23 05:48:13;;;;;;;;;5.00;4.50;;;;;11.71;80.92;99574.28;5098765;28;8828;-62
2022/10/23 05:50:59;;;;;;;;;6.25;6.25;;;;;11.68;81.50;99563.84;5078977;28;8824;-62
2022/10/23 05:53:27;;;;;;;;;6.00;6.00;;;;;11.65;81.31;99560.63;5079229;28;8921;-59
2022/10/23 05:55:55;;;;;;;;;4.50;4.50;;;;;11.62;81.43;99559.09;5078885;28;8836;-62
2022/10/23 05:58:22;;;;;;;;;3.00;1.00;;;;;11.58;81.61;99555.00;5078884;28;8856;-62
2022/10/23 06:00:50;;;;;;;;;4.00;3.00;;;;;11.57;81.15;99555.09;5078819;28;9631;-62
2022/10/23 06:03:18;;;;;;;;;5.00;5.00;;;;;11.58;81.77;99568.34;5078697;28;8883;-62
2022/10/23 06:05:46;;;;;;;;;5.00;4.00;;;;;11.60;81.85;99560.22;5078759;28;8832;-60
2022/10/23 06:08:13;;;;;;;;;4.50;4.50;;;;;11.63;81.82;99560.78;5078375;28;9544;-61
2022/10/23 06:10:41;;;;;;;;;1.00;0.00;;;;;11.65;82.05;99560.63;5078679;28;9513;-62
2022/10/23 06:13:09;;;;;;;;;2.00;2.00;;;;;11.67;81.11;99561.34;5078102;28;8839;-62
2022/10/23 06:15:37;;;;;;;;;4.25;4.25;;;;;11.68;81.18;99555.84;5077940;28;8941;-61
2022/10/23 06:18:05;;;;;;;;;1.75;1.75;;;;;11.67;81.21;99551.50;5079148;28;8840;-62
2022/10/23 06:20:32;;;;;;;;;3.50;3.00;;;;;11.68;81.58;99537.19;5097704;28;8861;-62
2022/10/23 06:23:00;;;;;;;;;5.00;5.00;;;;;11.70;81.10;99529.06;5098564;28;8826;-62
2022/10/23 06:25:27;;;;;;;;;3.00;3.00;;;;;11.73;80.95;99532.28;5098364;28;8838;-60
2022/10/23 06:27:55;;;;;;;;;4.00;3.00;;;;;11.75;81.41;99535.66;5098750;28;8931;-62
2022/10/23 06:30:23;;;;;;;;;3.00;3.00;;;;;11.78;81.31;99531.88;5098622;28;8818;-61
2022/10/23 06:32:51;;;;;;;;;4.00;3.25;;;;;11.81;81.45;99521.75;5098519;28;8814;-59
2022/10/23 06:35:18;;;;;;;;;2.50;2.50;;;;;11.84;81.34;99525.97;5098891;28;8834;-60
2022/10/23 06:37:46;;;;;;;;;2.50;2.50;;;;;11.92;80.83;99531.47;5098991;28;8822;-60
2022/10/23 06:40:14;;;;;;;;;2.00;2.00;;;;;12.03;80.61;99519.66;5097687;28;8872;-60
2022/10/23 06:42:42;;;;;;;;;3.00;3.00;;;;;12.13;80.70;99525.81;5098334;28;8907;-61
2022/10/23 06:45:10;;;;;;;;;3.00;1.00;;;;;12.24;80.70;99524.84;5097627;28;8826;-61
2022/10/23 06:47:38;;;;;;;;;3.00;3.00;;;;;12.34;80.07;99531.00;5097073;28;8834;-62
2022/10/23 06:50:05;;;;;;;;;3.00;1.00;;;;;12.44;80.05;99523.78;5096659;28;8818;-62
2022/10/23 06:52:39;;;;;;;;;3.75;3.00;;;;;12.52;79.63;99521.25;5097901;28;8825;-62
2022/10/23 06:55:14;;;;;;;;;1.00;1.00;;;;;12.63;79.69;99513.94;5098148;28;8822;-62
2022/10/23 06:57:41;;;;;;;;;1.00;1.00;;;;;12.77;79.55;99512.59;5098126;28;8850;-62
2022/10/23 07:00:09;;;;;;;;;4.00;3.00;;;;;12.90;79.36;99507.78;5098087;28;8833;-62
2022/10/23 07:02:37;;;;;;;;;2.00;2.00;;;;;13.01;78.74;99513.81;5097690;28;8874;-61
2022/10/23 07:05:05;;;;;;;;;3.00;1.00;;;;;13.15;78.55;99515.97;5097828;28;8850;-60
2022/10/23 07:07:39;;;;;;;;;1.75;0.75;;;;;13.32;78.51;99517.00;5097638;28;8957;-60
2022/10/23 07:10:07;;;;;;;;;1.50;1.00;;;;;13.46;78.21;99512.00;5097806;28;8825;-61
2022/10/23 07:12:34;;;;;;;;;1.00;1.00;;;;;13.61;78.22;99515.00;5098070;28;8822;-61
2022/10/23 07:15:02;;;;;;;;;2.00;1.00;;;;;13.76;77.30;99510.81;5097691;28;8851;-62
2022/10/23 07:17:30;;;;;;;;;1.00;1.00;;;;;13.89;77.24;99505.91;5097137;28;8903;-62
2022/10/23 07:19:58;;;;;;;;;2.00;1.00;;;;;14.01;77.38;99502.00;5096479;28;8829;-63
2022/10/23 07:22:25;;;;;;;;;1.00;1.00;;;;;14.14;77.18;99507.78;5097576;28;8811;-62
2022/10/23 07:24:53;;;;;;;;;0.50;0.50;;;;;14.23;77.25;99510.44;5097023;28;8825;-62
2022/10/23 07:27:21;;;;;;;;;2.50;1.00;;;;;14.31;77.17;99496.25;5096739;28;8850;-62
2022/10/23 07:29:48;;;;;;;;;3.00;3.00;;;;;14.38;77.41;99505.34;5097070;28;8857;-62
2022/10/23 07:32:16;;;;;;;;;3.60;2.20;;;;;14.44;76.69;99500.22;5096814;28;8856;-62
2022/10/23 07:34:44;;;;;;;;;3.50;3.50;;;;;14.48;77.08;99506.91;5096377;28;8838;-61
2022/10/23 07:37:12;;;;;;;;;3.25;3.25;;;;;14.54;76.59;99506.28;5097084;28;8836;-59
2022/10/23 07:39:40;;;;;;;;;1.00;1.00;;;;;14.60;77.00;99502.13;5097258;28;9468;-59
2022/10/23 07:42:08;;;;;;;;;1.00;1.00;;;;;14.64;76.96;99506.19;5097302;28;8838;-61
2022/10/23 07:44:36;;;;;;;;;0.00;0.00;;;;;14.67;76.84;99513.91;5097299;28;8844;-60
2022/10/23 07:47:03;;;;;;;;;1.80;1.80;;;;;14.69;76.77;99506.53;5097103;28;8844;-61
2022/10/23 07:49:31;;;;;;;;;3.75;3.75;;;;;14.72;76.69;99508.91;5096257;28;8834;-62
2022/10/23 07:51:59;;;;;;;;;1.00;1.00;;;;;14.73;77.04;99506.06;5096646;28;8839;-61
2022/10/23 07:54:27;;;;;;;;;0.00;0.00;;;;;14.76;76.87;99497.72;5096020;28;8918;-61
2022/10/23 07:56:55;;;;;;;;;2.60;2.60;;;;;14.78;77.08;99497.53;5096228;28;8851;-61
2022/10/23 07:59:23;;;;;;;;;3.60;3.20;;;;;14.79;76.75;99499.25;5096243;28;8826;-61
2022/10/23 08:01:52;;;;;;;;;0.20;0.00;;;;;14.83;76.75;99492.56;5096338;28;8841;-61
2022/10/23 08:04:23;;;;;;;;;0.80;0.80;;;;;14.85;76.89;99493.22;5096264;28;8953;-60
2022/10/23 08:06:52;;;;;;;;;4.40;4.40;;;;;14.88;76.82;99492.91;5095939;28;8988;-62
2022/10/23 08:09:20;;;;;;;;;5.00;4.50;;;;;14.90;76.67;99494.44;5096008;28;8845;-61
2022/10/23 08:11:48;;;;;;;;;3.40;2.20;;;;;14.95;77.31;99486.75;5096134;28;8852;-60
2022/10/23 08:14:16;;;;;;;;;5.60;5.60;;;;;15.02;76.53;99481.59;5096501;28;8875;-63
2022/10/23 08:16:44;;;;;;;;;1.00;1.00;;;;;15.08;76.93;99473.72;5096007;28;8852;-61
2022/10/23 08:19:12;;;;;;;;;3.40;3.00;;;;;15.16;76.85;99476.44;5095577;28;8814;-62
2022/10/23 08:21:39;;;;;;;;;3.00;3.00;;;;;15.24;75.89;99472.97;5096181;28;8856;-62
2022/10/23 08:24:12;;;;;;;;;0.20;0.20;;;;;15.34;76.03;99477.22;5095903;28;8976;-61
2022/10/23 08:26:39;;;;;;;;;7.40;7.40;;;;;15.44;75.65;99471.69;5095811;28;8922;-60
2022/10/23 08:29:07;;;;;;;;;6.00;6.00;;;;;15.52;76.20;99466.34;5095547;28;8822;-60
2022/10/23 08:31:36;;;;;;;;;4.00;4.00;;;;;15.64;75.51;99459.66;5095988;28;8836;-60
2022/10/23 08:34:04;;;;;;;;;0.00;0.00;;;;;15.78;75.55;99459.00;5095686;28;8814;-61
2022/10/23 08:36:32;;;;;;;;;6.00;4.80;;;;;15.93;74.96;99454.66;5095583;28;8806;-62
2022/10/23 08:39:00;;;;;;;;;3.20;3.20;;;;;16.06;74.70;99445.06;5095395;28;8985;-61
2022/10/23 08:41:28;;;;;;;;;4.40;4.40;;;;;16.22;74.09;99446.94;5095247;28;8833;-62
2022/10/23 08:43:56;;;;;;;;;4.80;4.80;;;;;16.38;74.15;99450.44;5095924;28;8864;-60
2022/10/23 08:46:24;;;;;;;;;7.00;7.00;;;;;16.52;74.29;99437.16;5095991;28;9591;-60
2022/10/23 08:48:52;;;;;;;;;4.80;4.80;;;;;16.67;73.81;99438.13;5095629;28;8842;-62
2022/10/23 08:51:20;;;;;;;;;4.00;4.00;;;;;16.87;73.59;99438.56;5095562;28;8863;-60
2022/10/23 08:53:48;;;;;;;;;6.60;6.20;;;;;17.05;73.14;99437.31;5095485;28;8846;-62
2022/10/23 08:56:16;;;;;;;;;6.40;6.40;;;;;17.24;72.94;99434.16;5094701;28;8826;-62
2022/10/23 08:58:44;;;;;;;;;4.00;4.00;;;;;17.42;72.86;99425.84;5094247;28;8826;-60
2022/10/23 09:01:12;;;;;;;;;4.20;3.40;;;;;17.56;72.24;99431.31;5093836;28;9580;-62
2022/10/23 09:03:40;;;;;;;;;4.00;4.00;;;;;17.72;72.37;99427.66;5094030;28;8834;-63
2022/10/23 09:06:08;;;;;;;;;8.20;6.20;;;;;17.89;71.84;99429.19;5094585;28;8822;-61
2022/10/23 09:08:36;;;;;;;;;9.60;8.60;;;;;18.03;71.89;99437.34;5094519;28;8825;-60
2022/10/23 09:11:04;;;;;;;;;8.20;8.20;;;;;18.14;71.57;99434.22;5094314;28;8842;-62
2022/10/23 09:13:32;;;;;;;;;5.20;5.20;;;;;18.27;71.55;99422.78;5095293;28;9495;-60
2022/10/23 09:16:00;;;;;;;;;4.00;3.00;;;;;18.38;71.34;99422.41;5095140;28;8818;-62
2022/10/23 09:18:27;;;;;;;;;3.20;2.60;;;;;18.48;70.90;99415.72;5094743;28;8846;-61
2022/10/23 09:20:56;;;;;;;;;1.80;1.80;;;;;18.62;71.13;99417.59;5094836;28;8815;-60
2022/10/23 09:23:24;;;;;;;;;1.40;1.00;;;;;18.74;70.89;99412.56;5093555;28;8972;-61
2022/10/23 09:25:55;;;;;;;;;1.00;1.00;;;;;18.86;70.40;99413.75;5093552;28;8972;-60
2022/10/23 09:28:23;;;;;;;;;1.00;0.40;;;;;18.95;70.37;99418.88;5093292;28;8928;-62
2022/10/23 09:30:52;;;;;;;;;0.60;0.60;;;;;19.03;70.56;99418.75;5093699;28;8989;-61
2022/10/23 09:33:20;;;;;;;;;1.00;1.00;;;;;19.16;70.05;99409.97;5093984;28;8829;-61
2022/10/23 09:35:48;;;;;;;;;2.40;1.80;;;;;19.29;69.81;99391.28;5094119;28;8834;-60
2022/10/23 09:38:16;;;;;;;;;0.80;0.00;;;;;19.40;69.49;99391.63;5094542;28;8834;-63
2022/10/23 09:40:44;;;;;;;;;0.60;0.60;;;;;19.54;69.12;99396.13;5094876;28;8837;-63
2022/10/23 09:43:11;;;;;;;;;0.80;0.80;;;;;19.71;68.83;99399.44;5094941;28;8828;-61
2022/10/23 09:45:41;;;;;;;;;0.00;0.00;;;;;19.90;68.58;99399.59;5095137;28;8940;-62
2022/10/23 09:48:09;;;;;;;;;1.00;1.00;;;;;20.08;67.63;99391.88;5095121;28;8830;-61
2022/10/23 09:50:37;;;;;;;;;0.40;0.40;;;;;20.20;67.62;99379.50;5095091;28;8854;-61
2022/10/23 09:53:05;;;;;;;;;1.20;1.20;;;;;20.28;66.92;99375.81;5094520;28;8834;-62
2022/10/23 09:55:33;;;;;;;;;2.00;1.60;;;;;20.31;67.02;99381.66;5094561;28;8826;-62
2022/10/23 09:58:01;;;;;;;;;1.00;1.00;;;;;20.32;66.50;99377.09;5094377;28;8834;-62
2022/10/23 10:00:29;;;;;;;;;1.00;1.00;;;;;20.26;66.64;99367.88;5094651;28;8918;-62
2022/10/23 10:02:57;;;;;;;;;1.00;1.00;;;;;20.18;66.91;99368.03;5094157;28;9726;-60
2022/10/23 10:05:25;;;;;;;;;1.00;1.00;;;;;20.08;66.96;99359.44;5093884;28;9530;-62
2022/10/23 10:07:53;;;;;;;;;0.00;0.00;;;;;20.00;67.68;99356.84;5093566;28;9515;-61
2022/10/23 10:10:21;;;;;;;;;1.00;0.20;;;;;19.92;67.91;99356.16;5092774;28;8880;-60
2022/10/23 10:12:49;;;;;;;;;1.00;1.00;;;;;19.87;67.96;99359.44;5092657;28;8895;-62
2022/10/23 10:15:16;;;;;;;;;0.40;0.40;;;;;19.83;68.21;99355.47;5092301;28;8856;-62
2022/10/23 10:17:44;;;;;;;;;0.00;0.00;;;;;19.81;67.77;99360.22;5096129;28;8834;-62
2022/10/23 10:20:12;;;;;;;;;0.00;0.00;;;;;19.80;67.62;99360.44;5095730;28;8834;-61
2022/10/23 10:22:41;;;;;;;;;1.00;1.00;;;;;19.81;67.87;99357.50;5097268;28;8985;-63
2022/10/23 10:25:09;;;;;;;;;0.60;0.60;;;;;19.84;67.52;99345.47;5097236;28;9004;-62
2022/10/23 10:27:37;;;;;;;;;1.00;0.40;;;;;19.86;67.58;99349.66;5096431;28;8869;-62
2022/10/23 10:30:05;;;;;;;;;0.00;0.00;;;;;19.86;67.36;99346.97;5097306;28;8850;-61
2022/10/23 10:32:32;;;;;;;;;1.00;1.00;;;;;19.90;67.68;99345.56;5096988;28;9558;-61
2022/10/23 10:35:01;;;;;;;;;0.20;0.00;;;;;19.94;67.37;99336.00;5097142;28;8849;-60
2022/10/23 10:37:28;;;;;;;;;1.00;1.00;;;;;19.96;67.86;99333.13;5097587;28;8964;-60
2022/10/23 10:39:56;;;;;;;;;1.00;1.00;;;;;19.92;67.59;99327.25;5096229;28;8842;-60
2022/10/23 10:42:24;;;;;;;;;0.40;0.40;;;;;19.90;67.87;99323.94;5096539;28;8911;-60
2022/10/23 10:44:52;;;;;;;;;1.60;1.00;;;;;19.85;68.02;99323.66;5095833;28;8856;-61
2022/10/23 10:47:23;;;;;;;;;0.00;0.00;;;;;19.82;67.83;99315.13;5096111;28;8857;-60
2022/10/23 10:49:51;;;;;;;;;0.60;0.40;;;;;19.78;68.12;99306.56;5096327;28;8837;-62
2022/10/23 10:52:19;;;;;;;;;0.00;0.00;;;;;19.74;68.08;99313.41;5096589;28;8853;-60
2022/10/23 10:54:47;;;;;;;;;1.00;1.00;;;;;19.71;68.36;99302.97;5095543;28;8834;-62
2022/10/23 10:57:14;;;;;;;;;0.80;0.80;;;;;19.69;68.54;99302.34;5095851;28;8860;-61
2022/10/23 10:59:43;;;;;;;;;1.00;1.00;;;;;19.68;68.68;99294.41;5095625;28;8829;-60
2022/10/23 11:02:11;;;;;;;;;0.00;0.00;;;;;19.66;68.42;99300.00;5096680;28;8964;-61
2022/10/23 11:04:39;;;;;;;;;1.00;1.00;;;;;19.65;68.17;99298.34;5096605;28;8834;-61
2022/10/23 11:07:07;;;;;;;;;1.00;1.00;;;;;19.64;68.49;99291.28;5096891;28;8849;-60
2022/10/23 11:09:35;;;;;;;;;0.40;0.40;;;;;19.63;68.26;99286.06;5097020;28;9527;-60
2022/10/23 11:12:03;;;;;;;;;1.00;1.00;;;;;19.57;68.90;99274.16;5096089;28;8814;-60
2022/10/23 11:14:32;;;;;;;;;1.00;1.00;;;;;19.55;68.59;99276.25;5096376;28;8834;-60
2022/10/23 11:17:00;;;;;;;;;2.20;2.00;;;;;19.54;68.72;99263.75;5095114;28;8926;-62
2022/10/23 11:19:28;;;;;;;;;0.80;0.80;;;;;19.52;69.09;99263.13;5094779;28;8825;-62
2022/10/23 11:21:56;;;;;;;;;1.00;1.00;;;;;19.50;68.89;99261.66;5095215;28;8906;-61
2022/10/23 11:24:24;;;;;;;;;1.00;1.00;;;;;19.46;69.24;99258.50;5094706;28;8972;-61
2022/10/23 11:26:52;;;;;;;;;1.00;1.00;;;;;19.45;68.84;99251.44;5094800;28;8830;-63
2022/10/23 11:29:20;;;;;;;;;2.20;2.20;;;;;19.47;69.18;99249.38;5094237;28;8834;-60
2022/10/23 11:31:48;;;;;;;;;1.00;1.00;;;;;19.52;68.77;99238.81;5094959;28;8830;-62
2022/10/23 11:34:16;;;;;;;;;2.00;1.20;;;;;19.57;69.06;99239.06;5096200;28;9507;-61
2022/10/23 11:36:44;;;;;;;;;1.00;1.00;;;;;19.62;68.76;99235.75;5095992;28;8838;-63
2022/10/23 11:39:12;;;;;;;;;1.00;0.60;;;;;19.63;68.72;99229.31;5096092;28;9706;-61
2022/10/23 11:41:40;;;;;;;;;1.00;0.00;;;;;19.59;69.02;99217.25;5096274;28;8818;-62
2022/10/23 11:44:08;;;;;;;;;1.20;1.20;;;;;19.57;68.81;99220.13;5095091;28;8846;-60